createdAt,value
2023-08-07T00:00:27.084Z,101343.56
2023-08-07T00:02:55.379Z,101353.41
2023-08-07T00:05:23.657Z,101348.09
2023-08-07T00:07:51.878Z,101339.22
2023-08-07T00:10:20.153Z,101344.75
2023-08-07T00:12:48.570Z,101360.25
2023-08-07T00:15:16.840Z,101362.00
2023-08-07T00:17:45.129Z,101357.66
2023-08-07T00:20:13.335Z,101349.66
2023-08-07T00:22:41.520Z,101356.81
2023-08-07T00:25:10.166Z,101363.22
2023-08-07T00:27:38.420Z,101356.81
2023-08-07T00:30:07.044Z,101372.22
2023-08-07T00:32:35.350Z,101366.78
2023-08-07T00:35:04.637Z,101359.63
2023-08-07T00:37:32.863Z,101367.88
2023-08-07T00:40:01.063Z,101360.72
2023-08-07T00:42:29.315Z,101360.84
2023-08-07T00:44:57.545Z,101359.97
2023-08-07T00:47:25.812Z,101364.53
2023-08-07T00:49:54.058Z,101360.09
2023-08-07T00:52:22.346Z,101355.69
2023-08-07T00:54:50.619Z,101348.38
2023-08-07T00:57:24.066Z,101354.91
2023-08-07T00:59:54.604Z,101354.91
2023-08-07T01:02:22.931Z,101355.03
2023-08-07T01:04:52.227Z,101356.75
2023-08-07T01:07:20.712Z,101349.63
2023-08-07T01:09:48.980Z,101353.19
2023-08-07T01:12:30.990Z,101358.59
2023-08-07T01:15:21.090Z,101361.28
2023-08-07T01:17:51.425Z,101364.88
2023-08-07T01:20:20.051Z,101363.16
2023-08-07T01:22:48.404Z,101367.59
2023-08-07T01:25:16.665Z,101354.91
2023-08-07T01:27:57.650Z,101368.47
2023-08-07T01:30:35.547Z,101375.72
2023-08-07T01:33:15.135Z,101371.28
2023-08-07T01:35:48.155Z,101369.44
2023-08-07T01:38:17.133Z,101371.41
2023-08-07T01:40:47.234Z,101380.38
2023-08-07T01:43:15.491Z,101380.38
2023-08-07T01:45:43.693Z,101376.72
2023-08-07T01:48:12.685Z,101378.44
2023-08-07T01:50:41.646Z,101369.22
2023-08-07T01:53:10.452Z,101369.84
2023-08-07T01:55:38.706Z,101373.28
2023-08-07T01:58:06.972Z,101379.56
2023-08-07T02:00:35.239Z,101381.28
2023-08-07T02:03:03.484Z,101375.88
2023-08-07T02:05:31.792Z,101380.22
2023-08-07T02:08:00.117Z,101376.75
2023-08-07T02:10:29.373Z,101384.13
2023-08-07T02:13:02.696Z,101383.41
2023-08-07T02:15:31.246Z,101383.50
2023-08-07T02:17:59.558Z,101385.34
2023-08-07T02:20:27.842Z,101394.22
2023-08-07T02:22:56.015Z,101395.84
2023-08-07T02:25:24.237Z,101399.28
2023-08-07T02:27:52.475Z,101393.00
2023-08-07T02:30:20.774Z,101386.72
2023-08-07T02:32:51.855Z,101385.88
2023-08-07T02:35:20.129Z,101386.72
2023-08-07T02:37:48.371Z,101389.41
2023-08-07T02:40:18.829Z,101390.19
2023-08-07T02:42:47.115Z,101392.75
2023-08-07T02:45:15.589Z,101398.19
2023-08-07T02:47:43.829Z,101396.22
2023-08-07T02:50:12.169Z,101404.34
2023-08-07T02:52:40.372Z,101394.50
2023-08-07T02:55:08.936Z,101398.94
2023-08-07T02:57:37.149Z,101395.28
2023-08-07T03:00:05.729Z,101392.56
2023-08-07T03:02:33.957Z,101394.50
2023-08-07T03:05:02.377Z,101386.38
2023-08-07T03:07:30.649Z,101393.63
2023-08-07T03:09:58.843Z,101385.63
2023-08-07T03:12:27.140Z,101391.94
2023-08-07T03:14:55.369Z,101387.59
2023-08-07T03:17:23.693Z,101381.28
2023-08-07T03:19:51.986Z,101380.56
2023-08-07T03:22:20.231Z,101374.41
2023-08-07T03:24:49.887Z,101375.34
2023-08-07T03:27:18.334Z,101374.63
2023-08-07T03:29:46.637Z,101381.00
2023-08-07T03:32:15.608Z,101378.44
2023-08-07T03:34:44.420Z,101386.56
2023-08-07T03:37:13.320Z,101376.72
2023-08-07T03:39:41.702Z,101379.41
2023-08-07T03:42:09.957Z,101383.97
2023-08-07T03:44:38.542Z,101380.25
2023-08-07T03:47:06.862Z,101374.97
2023-08-07T03:49:35.880Z,101379.41
2023-08-07T03:52:05.270Z,101373.13
2023-08-07T03:54:33.538Z,101381.13
2023-08-07T03:57:01.771Z,101377.34
2023-08-07T03:59:30.010Z,101385.34
2023-08-07T04:01:58.207Z,101388.81
2023-08-07T04:04:26.389Z,101383.28
2023-08-07T04:06:55.015Z,101383.28
2023-08-07T04:09:23.152Z,101380.44
2023-08-07T04:11:51.335Z,101379.47
2023-08-07T04:14:19.532Z,101380.09
2023-08-07T04:16:47.727Z,101385.41
2023-08-07T04:19:16.728Z,101391.69
2023-08-07T04:21:44.970Z,101386.25
2023-08-07T04:24:13.176Z,101387.13
2023-08-07T04:26:41.580Z,101388.84
2023-08-07T04:29:09.797Z,101396.97
2023-08-07T04:31:38.276Z,101399.81
2023-08-07T04:34:06.505Z,101399.69
2023-08-07T04:36:34.788Z,101403.28
2023-08-07T04:39:03.355Z,101406.00
2023-08-07T04:41:31.581Z,101406.59
2023-08-07T04:43:59.789Z,101413.00
2023-08-07T04:46:28.311Z,101411.16
2023-08-07T04:48:56.615Z,101427.31
2023-08-07T04:51:24.886Z,101418.94
2023-08-07T04:53:53.182Z,101419.06
2023-08-07T04:56:21.390Z,101425.34
2023-08-07T04:58:49.609Z,101428.78
2023-08-07T05:01:17.903Z,101429.53
2023-08-07T05:03:46.235Z,101423.16
2023-08-07T05:06:14.532Z,101430.16
2023-08-07T05:08:42.821Z,101440.59
2023-08-07T05:11:11.058Z,101442.06
2023-08-07T05:13:39.285Z,101447.38
2023-08-07T05:16:07.507Z,101455.63
2023-08-07T05:18:35.766Z,101463.88
2023-08-07T05:21:04.446Z,101468.44
2023-08-07T05:23:32.683Z,101462.16
2023-08-07T05:26:00.968Z,101475.72
2023-08-07T05:28:29.189Z,101470.28
2023-08-07T05:30:57.431Z,101467.34
2023-08-07T05:33:25.704Z,101461.81
2023-08-07T05:35:54.255Z,101467.00
2023-08-07T05:38:22.562Z,101466.88
2023-08-07T05:40:50.799Z,101463.19
2023-08-07T05:43:19.317Z,101473.91
2023-08-07T05:45:47.631Z,101478.34
2023-08-07T05:48:16.032Z,101489.81
2023-08-07T05:50:44.701Z,101488.63
2023-08-07T05:53:13.034Z,101478.00
2023-08-07T05:55:44.724Z,101482.31
2023-08-07T05:58:13.158Z,101486.63
2023-08-07T06:00:41.434Z,101480.63
2023-08-07T06:03:09.684Z,101486.56
2023-08-07T06:05:37.998Z,101487.91
2023-08-07T06:08:06.617Z,101493.09
2023-08-07T06:10:34.874Z,101489.41
2023-08-07T06:13:03.110Z,101489.16
2023-08-07T06:15:32.947Z,101494.22
2023-08-07T06:18:01.193Z,101492.53
2023-08-07T06:20:29.402Z,101497.16
2023-08-07T06:22:57.633Z,101510.72
2023-08-07T06:25:25.828Z,101505.09
2023-08-07T06:27:54.065Z,101509.19
2023-08-07T06:30:22.310Z,101503.31
2023-08-07T06:32:50.846Z,101499.47
2023-08-07T06:35:19.168Z,101500.13
2023-08-07T06:37:47.353Z,101509.50
2023-08-07T06:40:15.596Z,101507.00
2023-08-07T06:42:43.808Z,101519.44
2023-08-07T06:45:12.242Z,101520.44
2023-08-07T06:47:40.483Z,101520.19
2023-08-07T06:50:08.926Z,101514.00
2023-08-07T06:52:37.254Z,101521.06
2023-08-07T06:55:05.838Z,101523.41
2023-08-07T06:57:34.084Z,101522.16
2023-08-07T07:00:02.285Z,101529.09
2023-08-07T07:02:30.498Z,101514.66
2023-08-07T07:04:58.740Z,101514.22
2023-08-07T07:07:27.096Z,101526.06
2023-08-07T07:09:55.354Z,101525.53
2023-08-07T07:12:23.597Z,101547.50
2023-08-07T07:14:51.799Z,101554.38
2023-08-07T07:17:20.069Z,101562.28
2023-08-07T07:19:48.411Z,101566.09
2023-08-07T07:22:16.650Z,101567.63
2023-08-07T07:24:44.942Z,101576.06
2023-08-07T07:27:13.205Z,101585.06
2023-08-07T07:29:41.431Z,101574.59
2023-08-07T07:32:09.846Z,101563.38
2023-08-07T07:34:38.041Z,101576.56
2023-08-07T07:37:06.788Z,101573.84
2023-08-07T07:39:36.942Z,101569.47
2023-08-07T07:42:06.032Z,101572.81
2023-08-07T07:44:36.333Z,101581.56
2023-08-07T07:47:06.353Z,101575.94
2023-08-07T07:49:35.388Z,101585.66
2023-08-07T07:52:03.638Z,101578.84
2023-08-07T07:54:31.843Z,101582.56
2023-08-07T07:57:00.071Z,101586.34
2023-08-07T07:59:28.272Z,101603.09
2023-08-07T08:01:56.722Z,101593.75
2023-08-07T08:04:25.128Z,101619.59
2023-08-07T08:06:53.457Z,101616.13
2023-08-07T08:09:21.740Z,101617.56
2023-08-07T08:11:49.933Z,101621.94
2023-08-07T08:14:18.191Z,101630.78
2023-08-07T08:16:46.374Z,101629.63
2023-08-07T08:19:15.089Z,101623.72
2023-08-07T08:21:44.279Z,101625.44
2023-08-07T08:24:12.731Z,101634.75
2023-08-07T08:26:41.034Z,101640.34
2023-08-07T08:29:09.352Z,101645.78
2023-08-07T08:31:37.738Z,101633.56
2023-08-07T08:34:05.990Z,101633.81
2023-08-07T08:36:34.203Z,101623.38
2023-08-07T08:39:02.735Z,101626.00
2023-08-07T08:41:33.228Z,101634.28
2023-08-07T08:44:03.543Z,101630.63
2023-08-07T08:46:32.890Z,101623.06
2023-08-07T08:49:03.659Z,101627.84
2023-08-07T08:51:32.324Z,101641.09
2023-08-07T08:54:02.941Z,101645.38
2023-08-07T08:56:33.416Z,101651.50
2023-08-07T08:59:02.611Z,101660.38
2023-08-07T09:01:32.463Z,101659.47
2023-08-07T09:04:01.794Z,101674.53
2023-08-07T09:06:32.428Z,101675.97
2023-08-07T09:09:01.746Z,101663.97
2023-08-07T09:11:31.068Z,101669.84
2023-08-07T09:14:00.945Z,101677.31
2023-08-07T09:16:30.091Z,101670.31
2023-08-07T09:18:58.889Z,101678.63
2023-08-07T09:21:28.281Z,101668.72
2023-08-07T09:23:56.558Z,101670.28
2023-08-07T09:26:25.956Z,101678.91
2023-08-07T09:28:55.232Z,101674.56
2023-08-07T09:31:27.724Z,101674.09
2023-08-07T09:33:56.152Z,101671.69
2023-08-07T09:36:25.352Z,101680.63
2023-08-07T09:38:53.633Z,101679.59
2023-08-07T09:41:21.587Z,101675.44
2023-08-07T09:43:49.885Z,101677.75
2023-08-07T09:46:19.908Z,101685.47
2023-08-07T09:48:48.173Z,101685.16
2023-08-07T09:51:16.368Z,101685.13
2023-08-07T09:53:44.634Z,101703.94
2023-08-07T09:56:15.429Z,101701.00
2023-08-07T09:58:49.323Z,101712.03
2023-08-07T10:01:18.589Z,101708.31
2023-08-07T10:03:48.033Z,101714.00
2023-08-07T10:06:16.690Z,101711.19
2023-08-07T10:08:46.331Z,101724.56
2023-08-07T10:11:18.253Z,101729.97
2023-08-07T10:13:47.609Z,101732.06
2023-08-07T10:16:16.466Z,101726.94
2023-08-07T10:18:45.077Z,101722.69
2023-08-07T10:21:13.721Z,101719.91
2023-08-07T10:23:43.520Z,101723.47
2023-08-07T10:26:13.591Z,101718.09
2023-08-07T10:28:43.964Z,101723.09
2023-08-07T10:31:14.863Z,101715.34
2023-08-07T10:33:43.954Z,101709.03
2023-08-07T10:36:13.665Z,101717.09
2023-08-07T10:38:43.156Z,101708.59
2023-08-07T10:41:15.371Z,101707.00
2023-08-07T10:43:49.109Z,101721.94
2023-08-07T10:46:24.382Z,101726.06
2023-08-07T10:49:00.923Z,101714.72
2023-08-07T10:51:32.682Z,101728.19
2023-08-07T10:54:03.221Z,101730.78
2023-08-07T10:56:32.684Z,101731.16
2023-08-07T10:59:09.630Z,101725.72
2023-08-07T11:01:40.751Z,101722.38
2023-08-07T11:04:15.095Z,101724.16
2023-08-07T11:06:48.534Z,101731.94
2023-08-07T11:09:16.711Z,101736.03
2023-08-07T11:11:47.439Z,101736.81
2023-08-07T11:14:15.586Z,101745.31
2023-08-07T11:16:44.743Z,101747.69
2023-08-07T11:19:16.063Z,101747.84
2023-08-07T11:21:44.734Z,101751.47
2023-08-07T11:24:20.157Z,101749.41
2023-08-07T11:26:48.493Z,101750.03
2023-08-07T11:29:20.693Z,101745.47
2023-08-07T11:31:48.983Z,101747.00
2023-08-07T11:34:19.899Z,101753.09
2023-08-07T11:39:50.219Z,101741.63
2023-08-07T11:42:18.459Z,101746.34
2023-08-07T11:44:46.934Z,101743.66
2023-08-07T11:47:17.678Z,101746.56
2023-08-07T11:49:45.956Z,101740.66
2023-08-07T11:52:15.249Z,101741.03
2023-08-07T11:54:44.371Z,101744.66
2023-08-07T11:57:19.752Z,101741.63
2023-08-07T11:59:57.024Z,101735.94
2023-08-07T12:02:28.174Z,101745.53
2023-08-07T12:05:00.750Z,101738.38
2023-08-07T12:07:33.471Z,101731.66
2023-08-07T12:10:05.380Z,101728.91
2023-08-07T12:12:39.100Z,101733.38
2023-08-07T12:15:11.186Z,101730.28
2023-08-07T12:17:39.425Z,101727.16
2023-08-07T12:20:08.956Z,101736.28
2023-08-07T12:22:38.630Z,101729.06
2023-08-07T12:25:07.516Z,101734.34
2023-08-07T12:27:35.829Z,101741.78
2023-08-07T12:30:04.070Z,101736.97
2023-08-07T12:32:32.371Z,101734.06
2023-08-07T12:37:31.345Z,101740.84
2023-08-07T12:40:36.167Z,101736.72
2023-08-07T12:42:47.871Z,101741.50
2023-08-07T12:45:17.661Z,101745.25
2023-08-07T12:47:46.351Z,101739.75
2023-08-07T12:50:14.801Z,101738.19
2023-08-07T12:52:43.327Z,101739.22
2023-08-07T12:55:13.244Z,101728.03
2023-08-07T12:57:44.783Z,101737.09
2023-08-07T13:00:15.966Z,101734.91
2023-08-07T13:02:47.306Z,101729.13
2023-08-07T13:05:18.138Z,101737.06
2023-08-07T13:07:46.966Z,101739.34
2023-08-07T13:10:16.807Z,101739.41
2023-08-07T13:13:18.456Z,101742.28
2023-08-07T13:15:46.909Z,101737.91
2023-08-07T13:18:17.986Z,101741.59
2023-08-07T13:20:46.380Z,101741.28
2023-08-07T13:23:15.491Z,101734.75
2023-08-07T13:25:43.638Z,101748.63
2023-08-07T13:28:11.904Z,101738.75
2023-08-07T13:30:40.143Z,101740.81
2023-08-07T13:33:28.651Z,101747.38
2023-08-07T13:35:57.030Z,101748.84
2023-08-07T13:38:24.920Z,101738.41
2023-08-07T13:40:53.273Z,101747.53
2023-08-07T13:43:21.696Z,101758.16
2023-08-07T13:45:51.595Z,101762.06
2023-08-07T13:48:19.894Z,101755.06
2023-08-07T13:50:48.630Z,101763.31
2023-08-07T13:53:17.004Z,101777.00
2023-08-07T13:55:45.920Z,101777.38
2023-08-07T13:58:17.903Z,101766.53
2023-08-07T14:00:46.236Z,101771.63
2023-08-07T14:03:14.831Z,101774.47
2023-08-07T14:05:43.338Z,101768.47
2023-08-07T14:08:12.167Z,101768.84
2023-08-07T14:10:42.881Z,101759.28
2023-08-07T14:13:12.972Z,101771.66
2023-08-07T14:15:41.720Z,101774.16
2023-08-07T14:18:10.109Z,101775.50
2023-08-07T14:20:48.168Z,101760.41
2023-08-07T14:23:24.780Z,101765.78
2023-08-07T14:25:54.255Z,101776.53
2023-08-07T14:28:23.866Z,101773.16
2023-08-07T14:30:52.550Z,101784.44
2023-08-07T14:33:28.624Z,101774.63
2023-08-07T14:35:56.862Z,101775.91
2023-08-07T14:38:25.112Z,101782.97
2023-08-07T14:40:53.347Z,101781.16
2023-08-07T14:43:21.640Z,101773.81
2023-08-07T14:45:50.178Z,101778.66
2023-08-07T14:48:20.781Z,101778.94
2023-08-07T14:50:49.030Z,101783.50
2023-08-07T14:53:17.339Z,101774.75
2023-08-07T14:55:48.875Z,101774.09
2023-08-07T14:58:17.157Z,101778.19
2023-08-07T15:00:45.439Z,101788.75
2023-08-07T15:03:13.856Z,101780.75
2023-08-07T15:05:41.760Z,101786.09
2023-08-07T15:08:09.922Z,101784.13
2023-08-07T15:10:40.860Z,101782.34
2023-08-07T15:13:09.077Z,101789.22
2023-08-07T15:15:37.369Z,101793.66
2023-08-07T15:18:06.697Z,101788.84
2023-08-07T15:20:36.774Z,101785.78
2023-08-07T15:23:05.254Z,101790.31
2023-08-07T15:25:33.200Z,101796.91
2023-08-07T15:28:01.764Z,101803.50
2023-08-07T15:30:31.693Z,101800.34
2023-08-07T15:33:00.051Z,101794.25
2023-08-07T15:35:32.543Z,101804.66
2023-08-07T15:38:03.813Z,101786.94
2023-08-07T15:40:32.063Z,101793.31
2023-08-07T15:43:00.364Z,101809.53
2023-08-07T15:45:28.618Z,101787.44
2023-08-07T15:47:56.901Z,101796.44
2023-08-07T15:50:25.197Z,101789.63
2023-08-07T15:52:53.391Z,101797.03
2023-08-07T15:55:21.756Z,101797.72
2023-08-07T15:57:50.055Z,101790.97
2023-08-07T16:00:18.480Z,101791.72
2023-08-07T16:02:46.398Z,101793.34
2023-08-07T16:05:14.727Z,101782.81
2023-08-07T16:07:42.919Z,101789.53
2023-08-07T16:10:11.117Z,101792.59
2023-08-07T16:12:39.395Z,101781.84
2023-08-07T16:15:08.001Z,101784.13
2023-08-07T16:17:36.310Z,101780.16
2023-08-07T16:20:05.533Z,101784.22
2023-08-07T16:22:36.515Z,101788.00
2023-08-07T16:25:05.445Z,101788.41
2023-08-07T16:27:34.023Z,101788.47
2023-08-07T16:30:05.168Z,101793.31
2023-08-07T16:32:34.883Z,101798.09
2023-08-07T16:35:03.656Z,101790.50
2023-08-07T16:37:54.598Z,101789.31
2023-08-07T16:40:22.883Z,101791.38
2023-08-07T16:42:51.124Z,101786.19
2023-08-07T16:45:20.886Z,101794.56
2023-08-07T16:47:49.215Z,101793.13
2023-08-07T16:50:17.536Z,101790.91
2023-08-07T16:52:45.712Z,101790.38
2023-08-07T16:55:13.992Z,101770.00
2023-08-07T16:57:42.221Z,101772.41
2023-08-07T17:00:11.595Z,101775.22
2023-08-07T17:02:39.983Z,101775.44
2023-08-07T17:05:08.240Z,101782.06
2023-08-07T17:07:36.795Z,101770.31
2023-08-07T17:10:05.376Z,101776.41
2023-08-07T17:12:33.629Z,101767.34
2023-08-07T17:15:01.932Z,101765.47
2023-08-07T17:17:30.215Z,101773.09
2023-08-07T17:19:58.477Z,101765.63
2023-08-07T17:22:26.659Z,101753.63
2023-08-07T17:24:54.942Z,101751.44
2023-08-07T17:27:23.162Z,101756.03
2023-08-07T17:29:51.953Z,101757.03
2023-08-07T17:32:20.277Z,101760.97
2023-08-07T17:34:48.539Z,101757.03
2023-08-07T17:37:16.865Z,101763.22
2023-08-07T17:39:46.106Z,101760.91
2023-08-07T17:42:14.330Z,101761.00
2023-08-07T17:44:42.561Z,101760.81
2023-08-07T17:47:10.793Z,101758.47
2023-08-07T17:49:41.275Z,101753.75
2023-08-07T17:52:09.533Z,101745.28
2023-08-07T17:54:39.011Z,101740.53
2023-08-07T17:57:07.350Z,101739.31
2023-08-07T17:59:35.871Z,101739.09
2023-08-07T18:02:04.145Z,101743.16
2023-08-07T18:04:33.497Z,101742.59
2023-08-07T18:07:01.734Z,101745.22
2023-08-07T18:09:29.912Z,101740.88
2023-08-07T18:11:58.602Z,101735.56
2023-08-07T18:14:26.817Z,101742.09
2023-08-07T18:16:55.090Z,101742.09
2023-08-07T18:19:23.312Z,101737.16
2023-08-07T18:21:52.928Z,101737.06
2023-08-07T18:24:21.549Z,101734.00
2023-08-07T18:26:49.791Z,101731.81
2023-08-07T18:29:17.953Z,101725.56
2023-08-07T18:31:46.120Z,101723.22
2023-08-07T18:34:14.483Z,101725.44
2023-08-07T18:36:43.983Z,101719.03
2023-08-07T18:39:12.472Z,101725.03
2023-08-07T18:41:40.694Z,101715.38
2023-08-07T18:44:10.050Z,101710.72
2023-08-07T18:46:39.551Z,101715.69
2023-08-07T18:49:07.815Z,101716.31
2023-08-07T18:51:36.601Z,101715.75
2023-08-07T18:54:06.396Z,101718.22
2023-08-07T18:56:34.661Z,101715.88
2023-08-07T18:59:04.681Z,101715.16
2023-08-07T19:01:34.064Z,101714.66
2023-08-07T19:04:02.559Z,101717.16
2023-08-07T19:06:33.904Z,101719.53
2023-08-07T19:09:02.307Z,101711.97
2023-08-07T19:11:32.487Z,101712.09
2023-08-07T19:14:01.150Z,101713.63
2023-08-07T19:16:29.902Z,101719.69
2023-08-07T19:18:58.366Z,101712.25
2023-08-07T19:21:27.537Z,101720.88
2023-08-07T19:23:55.889Z,101720.50
2023-08-07T19:26:24.170Z,101718.66
2023-08-07T19:28:53.208Z,101716.22
2023-08-07T19:31:21.445Z,101722.00
2023-08-07T19:33:49.865Z,101720.88
2023-08-07T19:36:18.148Z,101715.69
2023-08-07T19:38:46.343Z,101719.28
2023-08-07T19:41:14.962Z,101716.69
2023-08-07T19:43:43.864Z,101706.16
2023-08-07T19:46:12.168Z,101703.44
2023-08-07T19:48:40.401Z,101705.78
2023-08-07T19:51:09.956Z,101704.41
2023-08-07T19:53:40.675Z,101700.09
2023-08-07T19:56:14.253Z,101700.44
2023-08-07T19:58:42.509Z,101697.31
2023-08-07T20:01:10.717Z,101699.53
2023-08-07T20:03:39.036Z,101695.47
2023-08-07T20:06:07.245Z,101703.94
2023-08-07T20:08:35.590Z,101702.34
2023-08-07T20:11:05.682Z,101697.16
2023-08-07T20:13:33.875Z,101693.56
2023-08-07T20:16:05.907Z,101690.34
2023-08-07T20:18:34.218Z,101686.03
2023-08-07T20:21:02.445Z,101683.53
2023-08-07T20:23:30.650Z,101681.03
2023-08-07T20:25:58.903Z,101684.16
2023-08-07T20:28:27.127Z,101682.94
2023-08-07T20:30:55.477Z,101679.25
2023-08-07T20:33:23.698Z,101673.41
2023-08-07T20:35:52.034Z,101672.78
2023-08-07T20:38:20.244Z,101665.72
2023-08-07T20:40:48.437Z,101670.06
2023-08-07T20:43:16.664Z,101667.13
2023-08-07T20:45:46.006Z,101666.91
2023-08-07T20:48:14.393Z,101659.84
2023-08-07T20:50:42.663Z,101654.41
2023-08-07T20:53:10.917Z,101657.00
2023-08-07T20:55:39.189Z,101656.03
2023-08-07T20:58:07.470Z,101650.81
2023-08-07T21:00:35.757Z,101651.69
2023-08-07T21:03:05.137Z,101636.28
2023-08-07T21:05:33.469Z,101631.47
2023-08-07T21:08:01.684Z,101636.66
2023-08-07T21:10:30.072Z,101630.97
2023-08-07T21:12:58.292Z,101627.38
2023-08-07T21:15:26.548Z,101621.94
2023-08-07T21:17:54.804Z,101617.41
2023-08-07T21:20:23.109Z,101605.66
2023-08-07T21:22:51.693Z,101600.47
2023-08-07T21:25:20.068Z,101601.47
2023-08-07T21:27:51.621Z,101608.75
2023-08-07T21:30:19.990Z,101608.88
2023-08-07T21:32:48.324Z,101611.22
2023-08-07T21:35:16.674Z,101613.72
2023-08-07T21:37:45.900Z,101613.81
2023-08-07T21:40:14.493Z,101609.25
2023-08-07T21:42:42.685Z,101614.56
2023-08-07T21:45:11.398Z,101614.22
2023-08-07T21:47:44.501Z,101614.09
2023-08-07T21:50:12.991Z,101607.66
2023-08-07T21:52:41.343Z,101613.97
2023-08-07T21:55:10.094Z,101596.91
2023-08-07T21:57:38.026Z,101603.69
2023-08-07T22:00:07.594Z,101593.44
2023-08-07T22:02:40.779Z,101595.28
2023-08-07T22:05:10.092Z,101591.94
2023-08-07T22:07:39.576Z,101568.63
2023-08-07T22:10:09.106Z,101569.81
2023-08-07T22:12:37.671Z,101565.72
2023-08-07T22:15:06.558Z,101568.69
2023-08-07T22:17:34.811Z,101572.50
2023-08-07T22:20:06.088Z,101562.88
2023-08-07T22:22:34.915Z,101568.53
2023-08-07T22:25:04.544Z,101570.38
2023-08-07T22:27:32.777Z,101560.41
2023-08-07T22:30:02.390Z,101560.41
2023-08-07T22:32:31.049Z,101562.88
2023-08-07T22:34:59.262Z,101555.59
2023-08-07T22:37:27.460Z,101553.84
2023-08-07T22:39:55.715Z,101548.91
2023-08-07T22:42:24.045Z,101559.38
2023-08-07T22:44:52.269Z,101552.44
2023-08-07T22:47:20.450Z,101549.84
2023-08-07T22:49:48.640Z,101549.22
2023-08-07T22:52:16.870Z,101557.84
2023-08-07T22:54:45.070Z,101550.19
2023-08-07T22:57:13.426Z,101540.78
2023-08-07T22:59:41.702Z,101549.25
2023-08-07T23:02:09.976Z,101543.44
2023-08-07T23:04:38.258Z,101537.38
2023-08-07T23:07:06.456Z,101534.78
2023-08-07T23:09:34.742Z,101531.38
2023-08-07T23:12:02.977Z,101527.91
2023-08-07T23:14:31.195Z,101528.13
2023-08-07T23:16:59.400Z,101528.34
2023-08-07T23:19:27.664Z,101528.47
2023-08-07T23:21:56.098Z,101521.56
2023-08-07T23:24:24.293Z,101520.69
2023-08-07T23:26:52.815Z,101512.78
2023-08-07T23:29:21.089Z,101518.97
2023-08-07T23:31:49.474Z,101511.34
2023-08-07T23:34:17.828Z,101511.97
2023-08-07T23:36:46.228Z,101513.47
2023-08-07T23:39:15.296Z,101516.06
2023-08-07T23:41:43.639Z,101512.38
2023-08-07T23:44:11.874Z,101506.94
2023-08-07T23:46:40.257Z,101507.66
2023-08-07T23:49:08.492Z,101506.94
2023-08-07T23:51:36.699Z,101505.09
2023-08-07T23:54:04.947Z,101498.69
2023-08-07T23:56:33.143Z,101494.00
2023-08-07T23:59:01.356Z,101493.53
